Matthews, MO (63867)

5:57 AM CST on December 18, 2014 (GMT -0600)
SEMO Electric Coop | Change Station
CLOSE
Current Station
Personal Weather Station
Location: Sikeston, MO
Elevation: 338 ft
Nearby Weather Stations
Active Advisory: Special Statement

Elev 338 ft 36.85 °N, 89.58 °W | Updated 7 minutes ago

Mostly Cloudy
Mostly Cloudy
33.9 °F
Feels Like 30 °F
N
4.0
Wind Variable Wind from ENE
Gusts 6.0 mph

Today
High -- | Low -- °F
--% Chance of Precip.
Yesterday
High -- | Low -- °F
Precip. -- in
7:05 AM 4:44 PM
Waning Crescent, 15% visible
Pressure 30.27 in
Visibility 4.0 miles
Clouds Scattered Clouds 3100 ft
Mostly Cloudy 3700 ft
Overcast 4400 ft
Windchill 30 °F
Dew Point 33 °F
Humidity 95%
Rainfall 0.14 in
Snow Depth Not available.
UV 0 out of 12
Pollen 1.60 out of 12
Air Quality Not available.
Flu Activity Not available.
METAR KCIR 181135Z AUTO 04004KT 4SM BR SCT031 BKN037 OVC044 02/02 A3027 RMK AO2 T00200015

More Conditions Fewer Conditions

Pressure 30.27 in
Visibility 4.0 miles
Clouds Scattered Clouds 3100 ft
Mostly Cloudy 3700 ft
Overcast 4400 ft
Windchill 30 °F
Dew Point 33 °F
Humidity 95%
Rainfall 0.14 in
Snow Depth Not available.
UV 0 out of 12
Pollen 1.60 out of 12
Air Quality Not available.
Flu Activity Not available.
METAR KCIR 181135Z AUTO 04004KT 4SM BR SCT031 BKN037 OVC044 02/02 A3027 RMK AO2 T00200015

More Conditions Fewer Conditions

10-Day Weather Forecast

Almanac

Astronomy

Dec. 18, 2014 Rise Set
Actual Time
Civil Twilight
Nautical Twilight
Astronomical Twilight
Moon
Length of Visible Light
Length of Day
Tomorrow will be .
, % of the Moon is Illuminated

Today's Extremes

State Highs State Lows

Community

WunderPhotos

Upload Photos

1,778,919 photos uploaded!

WunderBlogs® & News

Nearby

Air Quality

  Air Quality AQ Index Pollutant
Not available.

Snow Depth

Station Depth Elevation

Earthquake Activity

City Distance Mag. Time & Date
Minimum magnitude displayed is 2.5.

Coastal Water Temperatures

Place Temperature

Nearby Weather Stations